createdAt,value
2023-01-11T00:00:27.323Z,9.72
2023-01-11T00:02:57.761Z,9.77
2023-01-11T00:05:24.651Z,9.77
2023-01-11T00:07:51.323Z,9.79
2023-01-11T00:10:18.085Z,9.82
2023-01-11T00:12:45.058Z,9.83
2023-01-11T00:15:12.096Z,9.82
2023-01-11T00:17:38.684Z,9.84
2023-01-11T00:20:05.763Z,9.81
2023-01-11T00:22:32.241Z,9.77
2023-01-11T00:24:58.637Z,9.74
2023-01-11T00:27:25.069Z,9.78
2023-01-11T00:29:51.428Z,9.80
2023-01-11T00:32:17.785Z,9.80
2023-01-11T00:34:44.213Z,9.79
2023-01-11T00:37:10.693Z,9.80
2023-01-11T00:39:37.021Z,9.78
2023-01-11T00:42:21.977Z,9.74
2023-01-11T00:45:06.786Z,9.75
2023-01-11T00:47:51.508Z,9.68
2023-01-11T00:50:17.976Z,9.67
2023-01-11T00:52:44.358Z,9.62
2023-01-11T00:55:10.798Z,9.62
2023-01-11T00:57:37.260Z,9.58
2023-01-11T01:00:05.070Z,9.58
2023-01-11T01:02:32.602Z,9.53
2023-01-11T01:05:00.188Z,9.50
2023-01-11T01:07:26.615Z,9.49
2023-01-11T01:09:53.006Z,9.46
2023-01-11T01:12:38.311Z,9.43
2023-01-11T01:15:05.719Z,9.41
2023-01-11T01:17:32.278Z,9.39
2023-01-11T01:19:58.717Z,9.31
2023-01-11T01:22:25.190Z,9.28
2023-01-11T01:24:51.640Z,9.29
2023-01-11T01:27:19.976Z,9.28
2023-01-11T01:29:46.891Z,9.23
2023-01-11T01:32:13.268Z,9.26
2023-01-11T01:34:39.726Z,9.29
2023-01-11T01:37:08.039Z,9.27
2023-01-11T01:39:34.467Z,9.26
2023-01-11T01:42:01.153Z,9.29
2023-01-11T01:44:55.234Z,9.30
2023-01-11T01:47:46.321Z,9.30
2023-01-11T01:50:27.197Z,9.30
2023-01-11T01:52:59.490Z,9.29
2023-01-11T01:55:31.201Z,9.27
2023-01-11T01:57:59.981Z,9.26
2023-01-11T02:00:26.356Z,9.22
2023-01-11T02:02:53.548Z,9.19
2023-01-11T02:05:20.229Z,9.19
2023-01-11T02:07:47.276Z,9.26
2023-01-11T02:10:19.137Z,9.34
2023-01-11T02:12:51.787Z,9.34
2023-01-11T02:15:21.330Z,9.32
2023-01-11T02:17:47.911Z,9.33
2023-01-11T02:20:17.358Z,9.31
2023-01-11T02:23:11.844Z,9.34
2023-01-11T02:26:18.866Z,9.35
2023-01-11T02:29:07.422Z,9.29
2023-01-11T02:31:37.020Z,9.29
2023-01-11T02:34:37.728Z,9.34
2023-01-11T02:37:11.079Z,9.27
2023-01-11T02:40:02.124Z,9.25
2023-01-11T02:43:03.621Z,9.31
2023-01-11T02:45:43.846Z,9.46
2023-01-11T02:48:26.486Z,9.43
2023-01-11T02:51:04.799Z,9.46
2023-01-11T02:53:44.445Z,9.46
2023-01-11T02:56:14.158Z,9.52
2023-01-11T02:58:44.669Z,9.51
2023-01-11T03:01:12.565Z,9.51
2023-01-11T03:03:38.955Z,9.55
2023-01-11T03:06:08.265Z,9.52
2023-01-11T03:09:05.333Z,9.47
2023-01-11T03:12:21.298Z,9.40
2023-01-11T03:14:59.554Z,9.30
2023-01-11T03:17:50.921Z,9.28
2023-01-11T03:20:27.531Z,9.25
2023-01-11T03:23:24.325Z,9.21
2023-01-11T03:26:18.476Z,9.21
2023-01-11T03:28:44.769Z,9.26
2023-01-11T03:31:23.086Z,9.36
2023-01-11T03:34:07.249Z,9.37
2023-01-11T03:36:51.904Z,9.40
2023-01-11T03:39:36.099Z,9.40
2023-01-11T03:42:06.814Z,9.39
2023-01-11T03:44:43.650Z,9.36
2023-01-11T03:47:14.969Z,9.24
2023-01-11T03:49:56.055Z,9.25
2023-01-11T03:52:28.390Z,9.30
2023-01-11T03:54:56.482Z,9.24
2023-01-11T03:57:30.203Z,9.23
2023-01-11T03:59:57.210Z,9.21
2023-01-11T04:02:41.733Z,9.20
2023-01-11T04:05:10.671Z,9.26
2023-01-11T04:07:37.478Z,9.31
2023-01-11T04:10:04.850Z,9.26
2023-01-11T04:12:31.221Z,9.25
2023-01-11T04:14:57.641Z,9.25
2023-01-11T04:17:24.041Z,9.26
2023-01-11T04:19:50.439Z,9.32
2023-01-11T04:22:16.863Z,9.27
2023-01-11T04:24:43.260Z,9.19
2023-01-11T04:27:09.750Z,9.16
2023-01-11T04:29:36.170Z,9.13
2023-01-11T04:32:03.593Z,9.07
2023-01-11T04:34:29.990Z,9.06
2023-01-11T04:36:56.414Z,9.04
2023-01-11T04:39:22.845Z,8.93
2023-01-11T04:42:07.754Z,8.94
2023-01-11T04:44:34.164Z,8.91
2023-01-11T04:47:00.613Z,9.03
2023-01-11T04:49:27.008Z,8.98
2023-01-11T04:51:53.391Z,9.01
2023-01-11T04:54:19.931Z,9.03
2023-01-11T04:56:46.330Z,9.11
2023-01-11T04:59:13.852Z,9.10
2023-01-11T05:01:40.261Z,9.10
2023-01-11T05:04:06.788Z,9.09
2023-01-11T05:06:33.304Z,9.13
2023-01-11T05:08:59.797Z,9.06
2023-01-11T05:11:26.360Z,9.07
2023-01-11T05:13:52.813Z,9.09
2023-01-11T05:16:21.885Z,9.03
2023-01-11T05:18:52.024Z,9.03
2023-01-11T05:21:21.058Z,9.04
2023-01-11T05:23:48.256Z,9.03
2023-01-11T05:26:17.873Z,9.00
2023-01-11T05:28:45.467Z,9.03
2023-01-11T05:31:12.865Z,9.00
2023-01-11T05:33:39.261Z,8.93
2023-01-11T05:36:08.601Z,8.80
2023-01-11T05:38:35.319Z,8.74
2023-01-11T05:41:07.276Z,8.71
2023-01-11T05:43:54.308Z,8.68
2023-01-11T05:46:22.031Z,8.69
2023-01-11T05:48:48.880Z,8.73
2023-01-11T05:51:15.320Z,8.68
2023-01-11T05:53:41.824Z,8.72
2023-01-11T05:56:08.446Z,8.61
2023-01-11T05:58:35.117Z,8.62
2023-01-11T06:01:01.594Z,8.66
2023-01-11T06:03:28.501Z,8.71
2023-01-11T06:05:54.950Z,8.72
2023-01-11T06:08:21.596Z,8.74
2023-01-11T06:10:55.274Z,8.62
2023-01-11T06:13:29.227Z,8.60
2023-01-11T06:16:02.897Z,8.45
2023-01-11T06:18:31.854Z,8.43
2023-01-11T06:20:58.421Z,8.50
2023-01-11T06:23:26.847Z,8.46
2023-01-11T06:25:53.250Z,8.45
2023-01-11T06:28:20.221Z,8.38
2023-01-11T06:30:53.473Z,8.21
2023-01-11T06:33:20.873Z,8.13
2023-01-11T06:35:47.488Z,8.12
2023-01-11T06:38:16.029Z,8.14
2023-01-11T06:40:43.138Z,8.03
2023-01-11T06:43:10.303Z,8.04
2023-01-11T06:45:39.623Z,7.89
2023-01-11T06:48:06.319Z,7.91
2023-01-11T06:50:32.685Z,7.93
2023-01-11T06:53:01.828Z,7.91
2023-01-11T06:55:29.620Z,7.86
2023-01-11T06:57:56.955Z,7.74
2023-01-11T07:00:23.833Z,7.68
2023-01-11T07:02:50.745Z,7.63
2023-01-11T07:05:19.375Z,7.66
2023-01-11T07:07:46.292Z,7.57
2023-01-11T07:10:15.597Z,7.61
2023-01-11T07:12:42.270Z,7.63
2023-01-11T07:15:10.208Z,7.66
2023-01-11T07:17:36.754Z,7.63
2023-01-11T07:20:05.142Z,7.54
2023-01-11T07:22:35.290Z,7.58
2023-01-11T07:25:02.952Z,7.54
2023-01-11T07:27:29.480Z,7.57
2023-01-11T07:29:56.157Z,7.52
2023-01-11T07:32:22.746Z,7.45
2023-01-11T07:34:49.134Z,7.43
2023-01-11T07:37:28.703Z,7.38
2023-01-11T07:39:55.848Z,7.37
2023-01-11T07:42:41.118Z,7.32
2023-01-11T07:45:08.216Z,7.30
2023-01-11T07:47:34.693Z,7.33
2023-01-11T07:50:01.101Z,7.25
2023-01-11T07:52:27.475Z,7.23
2023-01-11T07:54:53.903Z,7.23
2023-01-11T07:57:20.305Z,7.19
2023-01-11T07:59:46.774Z,7.28
2023-01-11T08:02:13.277Z,7.22
2023-01-11T08:04:39.659Z,7.24
2023-01-11T08:07:06.018Z,7.16
2023-01-11T08:09:32.461Z,7.15
2023-01-11T08:12:17.363Z,7.12
2023-01-11T08:14:44.013Z,7.10
2023-01-11T08:17:15.581Z,7.05
2023-01-11T08:19:42.965Z,7.06
2023-01-11T08:22:09.920Z,7.12
2023-01-11T08:24:36.536Z,7.02
2023-01-11T08:27:04.175Z,7.10
2023-01-11T08:29:31.305Z,7.07
2023-01-11T08:31:59.338Z,7.10
2023-01-11T08:34:27.549Z,7.11
2023-01-11T08:36:53.987Z,7.13
2023-01-11T08:39:20.442Z,7.21
2023-01-11T08:41:46.812Z,7.18
2023-01-11T08:44:14.988Z,7.22
2023-01-11T08:46:41.556Z,7.25
2023-01-11T08:49:12.104Z,7.29
2023-01-11T08:51:40.115Z,7.25
2023-01-11T08:54:10.962Z,7.28
2023-01-11T08:56:37.670Z,7.33
2023-01-11T08:59:05.586Z,7.39
2023-01-11T09:01:33.498Z,7.46
2023-01-11T09:03:59.975Z,7.51
2023-01-11T09:06:26.731Z,7.53
2023-01-11T09:08:53.214Z,7.50
2023-01-11T09:11:38.173Z,7.59
2023-01-11T09:14:04.622Z,7.59
2023-01-11T09:16:31.155Z,7.69
2023-01-11T09:18:57.665Z,7.75
2023-01-11T09:21:24.224Z,7.81
2023-01-11T09:23:50.741Z,7.94
2023-01-11T09:26:17.238Z,8.15
2023-01-11T09:28:43.676Z,8.02
2023-01-11T09:31:10.260Z,7.93
2023-01-11T09:33:38.382Z,7.95
2023-01-11T09:36:05.558Z,7.96
2023-01-11T09:38:33.906Z,7.98
2023-01-11T09:41:26.743Z,8.00
2023-01-11T09:43:59.767Z,8.05
2023-01-11T09:46:28.357Z,8.09
2023-01-11T09:48:59.501Z,8.14
2023-01-11T09:51:34.313Z,8.21
2023-01-11T09:54:03.589Z,8.30
2023-01-11T09:56:38.953Z,8.37
2023-01-11T09:59:19.100Z,8.45
2023-01-11T10:02:18.238Z,8.41
2023-01-11T10:05:28.597Z,8.44
2023-01-11T10:18:26.165Z,8.63
2023-01-11T10:18:38.802Z,8.70
2023-01-11T10:20:47.526Z,8.87
2023-01-11T10:23:21.592Z,8.82
2023-01-11T10:25:51.717Z,8.85
2023-01-11T10:28:31.090Z,8.86
2023-01-11T10:30:58.043Z,9.00
2023-01-11T10:34:05.124Z,8.93
2023-01-11T10:37:23.388Z,8.96
2023-01-11T10:40:33.477Z,9.08
2023-01-11T10:43:14.097Z,9.07
2023-01-11T10:45:50.670Z,9.09
2023-01-11T10:48:23.814Z,9.12
2023-01-11T10:51:27.734Z,9.25
2023-01-11T10:54:16.673Z,9.08
2023-01-11T10:57:28.454Z,9.04
2023-01-11T10:59:58.101Z,9.01
2023-01-11T11:02:42.790Z,9.06
2023-01-11T11:05:28.123Z,8.99
2023-01-11T11:08:26.971Z,8.99
2023-01-11T11:10:56.589Z,9.14
2023-01-11T11:13:34.457Z,9.12
2023-01-11T11:16:04.945Z,9.17
2023-01-11T11:18:31.538Z,9.26
2023-01-11T11:21:04.196Z,9.23
2023-01-11T11:23:31.490Z,9.14
2023-01-11T11:26:01.808Z,9.17
2023-01-11T11:28:31.218Z,9.38
2023-01-11T11:31:02.442Z,9.70
2023-01-11T11:33:37.581Z,9.91
2023-01-11T11:36:07.911Z,9.91
2023-01-11T11:38:36.463Z,9.80
2023-01-11T11:41:12.894Z,9.65
2023-01-11T11:43:45.881Z,9.50
2023-01-11T11:46:19.504Z,9.21
2023-01-11T11:49:17.084Z,8.97
2023-01-11T11:51:46.940Z,8.90
2023-01-11T11:54:25.762Z,9.01
2023-01-11T11:56:53.975Z,9.00
2023-01-11T11:59:23.398Z,9.00
2023-01-11T12:02:00.369Z,8.94
2023-01-11T12:04:46.991Z,8.87
2023-01-11T12:07:16.426Z,8.80
2023-01-11T12:10:07.269Z,8.75
2023-01-11T12:12:36.626Z,8.63
2023-01-11T12:15:19.218Z,8.73
2023-01-11T12:17:46.490Z,8.81
2023-01-11T12:20:21.967Z,8.88
2023-01-11T12:23:12.516Z,8.89
2023-01-11T12:26:01.950Z,8.81
2023-01-11T12:29:00.738Z,8.77
2023-01-11T12:31:45.233Z,8.68
2023-01-11T12:34:40.605Z,8.67
2023-01-11T12:37:31.160Z,8.63
2023-01-11T12:40:18.003Z,8.65
2023-01-11T12:43:01.717Z,8.80
2023-01-11T12:45:30.880Z,8.82
2023-01-11T12:48:12.426Z,8.67
2023-01-11T12:51:16.228Z,8.86
2023-01-11T12:53:51.818Z,9.28
2023-01-11T12:56:39.397Z,9.79
2023-01-11T12:59:22.418Z,10.14
2023-01-11T13:02:19.062Z,10.17
2023-01-11T13:04:58.197Z,10.32
2023-01-11T13:07:32.100Z,9.69
2023-01-11T13:10:05.801Z,9.15
2023-01-11T13:12:45.214Z,8.87
2023-01-11T13:15:22.118Z,9.55
2023-01-11T13:18:11.068Z,9.79
2023-01-11T13:21:00.703Z,9.10
2023-01-11T13:23:39.893Z,8.82
2023-01-11T13:26:18.862Z,8.60
2023-01-11T13:28:51.520Z,8.52
2023-01-11T13:31:19.299Z,8.47
2023-01-11T13:33:52.780Z,8.39
2023-01-11T13:36:27.117Z,8.37
2023-01-11T13:39:00.480Z,8.37
2023-01-11T13:41:35.066Z,8.33
2023-01-11T13:44:13.289Z,8.30
2023-01-11T13:47:06.021Z,8.27
2023-01-11T13:49:49.294Z,8.27
2023-01-11T13:52:19.773Z,8.18
2023-01-11T13:54:56.035Z,8.22
2023-01-11T13:57:58.343Z,8.24
2023-01-11T14:00:35.090Z,8.18
2023-01-11T14:03:28.009Z,8.13
2023-01-11T14:06:18.953Z,8.09
2023-01-11T14:08:53.765Z,8.03
2023-01-11T14:11:44.635Z,8.03
2023-01-11T14:14:43.614Z,8.02
2023-01-11T14:17:28.219Z,8.02
2023-01-11T14:20:19.845Z,7.94
2023-01-11T14:23:04.179Z,7.88
2023-01-11T14:25:36.586Z,7.88
2023-01-11T14:28:26.623Z,7.85
2023-01-11T14:31:08.350Z,7.86
2023-01-11T14:33:56.327Z,7.85
2023-01-11T14:36:34.834Z,7.82
2023-01-11T14:39:17.748Z,7.78
2023-01-11T14:42:29.313Z,7.78
2023-01-11T14:45:18.702Z,7.74
2023-01-11T14:48:01.754Z,7.74
2023-01-11T14:50:41.726Z,7.65
2023-01-11T14:53:11.972Z,7.62
2023-01-11T14:55:46.350Z,7.61
2023-01-11T14:58:18.891Z,7.59
2023-01-11T15:00:45.247Z,7.59
2023-01-11T15:03:18.228Z,7.60
2023-01-11T15:05:59.820Z,7.54
2023-01-11T15:08:34.342Z,7.57
2023-01-11T15:11:06.080Z,7.46
2023-01-11T15:13:49.410Z,7.36
2023-01-11T15:16:43.928Z,7.32
2023-01-11T15:19:26.960Z,7.33
2023-01-11T15:21:55.889Z,7.43
2023-01-11T15:24:26.738Z,7.43
2023-01-11T15:26:54.410Z,7.40
2023-01-11T15:29:42.851Z,7.41
2023-01-11T15:32:27.599Z,7.38
2023-01-11T15:34:54.716Z,7.38
2023-01-11T15:37:24.421Z,7.40
2023-01-11T15:39:58.839Z,7.34
2023-01-11T15:42:57.329Z,7.37
2023-01-11T15:46:20.269Z,7.35
2023-01-11T15:49:14.557Z,7.27
2023-01-11T15:51:59.233Z,7.29
2023-01-11T15:54:43.697Z,7.25
2023-01-11T15:57:20.778Z,7.21
2023-01-11T16:00:24.882Z,7.15
2023-01-11T16:02:57.267Z,7.19
2023-01-11T16:05:33.359Z,7.15
2023-01-11T16:08:18.474Z,7.22
2023-01-11T16:11:08.486Z,7.18
2023-01-11T16:13:53.076Z,7.23
2023-01-11T16:16:26.943Z,7.20
2023-01-11T16:19:17.478Z,7.23
2023-01-11T16:21:48.650Z,7.18
2023-01-11T16:24:20.318Z,7.21
2023-01-11T16:26:55.149Z,7.17
2023-01-11T16:29:25.746Z,7.22
2023-01-11T16:32:04.643Z,7.25
2023-01-11T16:34:46.058Z,7.27
2023-01-11T16:37:20.450Z,7.25
2023-01-11T16:39:51.530Z,7.31
2023-01-11T16:42:18.027Z,7.34
2023-01-11T16:44:53.048Z,7.35
2023-01-11T16:47:21.442Z,7.40
2023-01-11T16:50:09.158Z,7.44
2023-01-11T16:52:54.976Z,7.40
2023-01-11T16:55:26.986Z,7.49
2023-01-11T16:57:58.281Z,7.53
2023-01-11T17:00:35.376Z,7.52
2023-01-11T17:03:05.617Z,7.54
2023-01-11T17:05:32.369Z,7.60
2023-01-11T17:07:58.794Z,7.62
2023-01-11T17:10:28.441Z,7.65
2023-01-11T17:13:39.975Z,7.64
2023-01-11T17:16:10.536Z,7.66
2023-01-11T17:18:41.902Z,7.66
2023-01-11T17:21:20.421Z,7.66
2023-01-11T17:23:48.525Z,7.65
2023-01-11T17:26:20.659Z,7.67
2023-01-11T17:28:49.749Z,7.74
2023-01-11T17:31:22.484Z,7.75
2023-01-11T17:33:59.123Z,7.71
2023-01-11T17:36:26.147Z,7.74
2023-01-11T17:38:55.565Z,7.77
2023-01-11T17:41:40.873Z,7.81
2023-01-11T17:44:34.663Z,7.88
2023-01-11T17:47:03.213Z,7.89
2023-01-11T17:49:32.043Z,7.88
2023-01-11T17:52:08.393Z,7.97
2023-01-11T17:54:34.803Z,7.99
2023-01-11T17:57:01.948Z,7.96
2023-01-11T17:59:30.370Z,7.88
2023-01-11T18:01:59.585Z,7.81
2023-01-11T18:04:27.462Z,7.70
2023-01-11T18:06:56.182Z,7.67
2023-01-11T18:09:30.383Z,7.63
2023-01-11T18:12:22.808Z,7.57
2023-01-11T18:14:53.315Z,7.52
2023-01-11T18:17:39.437Z,7.48
2023-01-11T18:20:15.067Z,7.45
2023-01-11T18:23:23.009Z,7.41
2023-01-11T18:25:49.593Z,7.35
2023-01-11T18:28:20.821Z,7.31
2023-01-11T18:30:53.694Z,7.21
2023-01-11T18:33:22.841Z,7.16
2023-01-11T18:35:54.838Z,7.14
2023-01-11T18:38:24.976Z,7.02
2023-01-11T18:40:53.445Z,7.02
2023-01-11T18:43:25.671Z,6.95
2023-01-11T18:45:52.412Z,7.02
2023-01-11T18:48:18.857Z,7.00
2023-01-11T18:50:46.073Z,6.95
2023-01-11T18:53:14.584Z,6.97
2023-01-11T18:55:41.423Z,7.00
2023-01-11T18:58:09.674Z,7.01
2023-01-11T19:00:37.264Z,7.02
2023-01-11T19:03:04.978Z,6.97
2023-01-11T19:05:31.426Z,7.04
2023-01-11T19:07:57.794Z,7.02
2023-01-11T19:10:24.269Z,7.03
2023-01-11T19:12:50.833Z,7.09
2023-01-11T19:15:17.573Z,7.14
2023-01-11T19:17:44.024Z,7.12
2023-01-11T19:20:11.074Z,7.14
2023-01-11T19:22:37.909Z,7.26
2023-01-11T19:25:05.115Z,7.28
2023-01-11T19:27:31.546Z,7.30
2023-01-11T19:29:58.156Z,7.26
2023-01-11T19:32:25.607Z,7.23
2023-01-11T19:34:53.302Z,7.27
2023-01-11T19:37:20.663Z,7.34
2023-01-11T19:39:47.107Z,7.43
2023-01-11T19:42:13.555Z,7.47
2023-01-11T19:44:40.022Z,7.54
2023-01-11T19:47:12.399Z,7.61
2023-01-11T19:49:40.512Z,7.63
2023-01-11T19:52:13.019Z,7.71
2023-01-11T19:54:44.113Z,7.79
2023-01-11T19:57:15.720Z,7.83
2023-01-11T19:59:42.346Z,7.85
2023-01-11T20:02:11.888Z,7.90
2023-01-11T20:04:38.800Z,7.95
2023-01-11T20:07:06.415Z,7.96
2023-01-11T20:09:32.923Z,7.95
2023-01-11T20:11:59.379Z,8.02
2023-01-11T20:14:25.804Z,8.04
2023-01-11T20:16:52.265Z,8.02
2023-01-11T20:19:18.644Z,8.01
2023-01-11T20:21:45.107Z,7.99
2023-01-11T20:24:12.942Z,8.00
2023-01-11T20:26:40.141Z,8.05
2023-01-11T20:29:07.148Z,8.00
2023-01-11T20:31:35.122Z,7.96
2023-01-11T20:34:09.991Z,7.89
2023-01-11T20:36:37.385Z,7.85
2023-01-11T20:39:04.920Z,7.82
2023-01-11T20:41:49.968Z,7.84
2023-01-11T20:44:23.780Z,7.78
2023-01-11T20:46:51.986Z,7.75
2023-01-11T20:49:19.141Z,7.79
2023-01-11T20:51:46.578Z,7.71
2023-01-11T20:54:13.454Z,7.65
2023-01-11T20:56:40.853Z,7.64
2023-01-11T20:59:08.981Z,7.67
2023-01-11T21:01:37.059Z,7.72
2023-01-11T21:04:08.405Z,7.78
2023-01-11T21:06:38.310Z,7.83
2023-01-11T21:09:06.191Z,7.83
2023-01-11T21:11:33.326Z,7.78
2023-01-11T21:14:01.196Z,7.85
2023-01-11T21:16:29.256Z,7.86
2023-01-11T21:19:00.580Z,7.79
2023-01-11T21:21:29.008Z,7.92
2023-01-11T21:23:57.826Z,7.96
2023-01-11T21:26:25.561Z,7.99
2023-01-11T21:28:59.797Z,7.97
2023-01-11T21:31:28.361Z,7.93
2023-01-11T21:33:55.102Z,8.04
2023-01-11T21:36:23.410Z,7.97
2023-01-11T21:38:49.878Z,7.92
2023-01-11T21:41:19.553Z,7.97
2023-01-11T21:43:46.001Z,7.93
2023-01-11T21:46:12.944Z,7.96
2023-01-11T21:48:39.614Z,7.88
2023-01-11T21:51:09.942Z,7.87
2023-01-11T21:53:36.605Z,7.94
2023-01-11T21:56:08.014Z,7.91
2023-01-11T21:58:35.204Z,7.92
2023-01-11T22:01:11.167Z,7.92
2023-01-11T22:03:37.783Z,7.91
2023-01-11T22:06:04.941Z,7.93
2023-01-11T22:08:34.668Z,7.90
2023-01-11T22:11:04.034Z,7.91
2023-01-11T22:13:32.362Z,7.92
2023-01-11T22:16:03.433Z,7.93
2023-01-11T22:18:30.420Z,7.92
2023-01-11T22:20:56.853Z,7.84
2023-01-11T22:23:23.620Z,7.83
2023-01-11T22:25:50.020Z,7.86
2023-01-11T22:28:17.238Z,7.93
2023-01-11T22:30:43.693Z,7.83
2023-01-11T22:33:10.089Z,7.85
2023-01-11T22:35:36.461Z,7.75
2023-01-11T22:38:02.931Z,7.64
2023-01-11T22:40:29.338Z,7.66
2023-01-11T22:42:55.811Z,7.72
2023-01-11T22:45:22.174Z,7.68
2023-01-11T22:47:48.735Z,7.82
2023-01-11T22:50:15.538Z,7.93
2023-01-11T22:52:42.002Z,7.93
2023-01-11T22:55:08.781Z,8.01
2023-01-11T22:57:35.219Z,7.98
2023-01-11T23:00:04.555Z,8.03
2023-01-11T23:02:31.033Z,8.00
2023-01-11T23:04:57.436Z,7.99
2023-01-11T23:07:23.821Z,8.01
2023-01-11T23:09:50.229Z,8.08
2023-01-11T23:12:45.639Z,8.08
2023-01-11T23:15:12.109Z,8.14
2023-01-11T23:17:38.569Z,8.10
2023-01-11T23:20:05.738Z,8.14
2023-01-11T23:22:32.152Z,8.16
2023-01-11T23:24:58.563Z,8.14
2023-01-11T23:27:24.974Z,8.18
2023-01-11T23:29:51.387Z,8.13
2023-01-11T23:32:17.751Z,8.05
2023-01-11T23:34:44.143Z,8.06
2023-01-11T23:37:10.617Z,8.18
2023-01-11T23:39:37.020Z,8.15
2023-01-11T23:42:22.084Z,8.13
2023-01-11T23:44:48.919Z,8.04
2023-01-11T23:47:21.578Z,8.02
2023-01-11T23:49:49.550Z,8.05
2023-01-11T23:52:17.208Z,8.02
2023-01-11T23:54:45.547Z,7.98
2023-01-11T23:57:13.492Z,7.99
2023-01-11T23:59:41.540Z,8.04
